Aviation Digital Data Service (ADDS)

Output produced by METARs form (2157 UTC 21 May 2022)
found at http://www.aviationweather.gov/metar/data/
 
KABE 212151Z 21014KT 10SM CLR 31/19 A3000 RMK AO2 SLP156 T03110194
KABE 211720Z 2118/2218 23009KT P6SM SCT250 
     FM220000 20006KT P6SM FEW250 
     FM220300 VRB03KT P6SM SCT150 
     FM220600 VRB03KT 5SM BR SCT200 
     FM221200 23005KT P6SM SCT200
       
KMPO 212153Z AUTO 20010KT 10SM SCT050 28/18 A3008 RMK AO2 SLP172 T02830178
KAVP 212154Z 24011G19KT 10SM CLR 32/17 A3001 RMK AO2 SLP153 T03170172
KAVP 211740Z 2118/2218 23010KT P6SM FEW250 
     FM220000 14005KT P6SM FEW250 
     FM221400 23009KT P6SM FEW250
       
KBGM 212153Z 21010KT 10SM CLR 29/17 A3001 RMK AO2 SLP149 T02890172
KBGM 211740Z 2118/2218 24010KT P6SM SCT050 
     FM220000 20006KT P6SM FEW250 
     FM221400 23008KT P6SM SCT050
       
KITH 211740Z 2118/2218 23009KT P6SM FEW050 
     FM220300 16005KT P6SM BKN100 
     FM221400 24010KT P6SM SCT050
       
KELM 212153Z 22008KT 10SM CLR 32/16 A2993 RMK AO2 SLP130 T03220161
KELM 211740Z 2118/2218 24010KT P6SM BKN050 
     FM220000 VRB03KT P6SM SCT050 
     FM220500 00000KT 6SM BR SCT003 
     TEMPO 2208/2212 2SM BR BKN003 
     FM221300 24007KT P6SM SCT050
       
KPEO 212153Z AUTO 21007KT 10SM FEW070 33/17 A2994 RMK AO2 SLP129 T03280167